Latest Coastal Weather Observations for Lombadina

IDW60701

Issued at 11:41 pm WST Wednesday 4 May 2016 (issued every 10 minutes, with the page automatically refreshed every 10 minutes)

About coastal observations | Map of coastal stations | Coastal observations for WA | Marine services | Other Formats
Station Details ID: 503016 Name: LOMBADINA AIRSTRIP Lat: -16.52 Lon: 122.92 Height: 42.0 m
Data from the previous 72 hours. | See also: Recent months for locations in Western Australia
Date/Time
WST
Temp

°C
Wind Pressure Rain
since 9am
mm
Weather Cloud Vis
km
Sea
Height
m
Swell
Dir
 
Speed
knots
Gust
knots
hPa Trend Height
m
Period
s
Dir
04/11:30pm 27.2 N 1 3 1011.9 - 0.0 - Partly cloudy 10 - - - -
04/11:00pm 27.1 NNE 1 2 1011.9 - 0.0 - Partly cloudy 10 - - - -
04/10:30pm 28.1 N 1 3 1011.9 - 0.0 - - 10 - - - -
04/10:00pm 28.0 NNE 3 4 1012.1 - 0.0 - Partly cloudy 10 - - - -
04/09:30pm 27.6 N 1 2 1011.7 - 0.0 - - 10 - - - -
04/09:00pm 28.2 N 2 3 1011.5 - 0.0 - - 10 - - - -
04/08:30pm 28.4 N 2 5 1011.3 - 0.0 - - 10 - - - -
04/08:00pm 28.7 NNW 1 2 1011.1 - 0.0 - - 10 - - - -
04/07:30pm 28.9 N 3 4 1011.0 - 0.0 - - 10 - - - -
04/07:00pm 29.2 N 3 5 1010.7 - 0.0 - - 10 - - - -
04/06:30pm 29.4 NNW 2 3 1010.5 - 0.0 - - 10 - - - -
04/06:00pm 29.8 NNW 2 4 1010.1 - 0.0 - - 10 - - - -
04/05:30pm 30.2 NNW 5 8 1009.8 - 0.0 - - 10 - - - -
04/05:00pm 30.7 NW 7 11 1009.3 - 0.0 - - 10 - - - -
04/04:30pm 31.2 NW 7 10 1008.8 - 0.0 - Partly cloudy 10 - - - -
04/04:00pm 32.0 NNW 8 13 1008.7 - 0.0 - Partly cloudy 10 - - - -
04/03:30pm 32.9 N 6 12 1008.7 - 0.0 - Partly cloudy 10 - - - -
04/03:00pm 32.8 NW 4 10 1008.7 - 0.0 - Mostly clear 10 - - - -
04/02:30pm 30.6 SSE 4 9 1008.9 - 0.0 - Cloudy 10 - - - -
04/02:00pm 30.2 ESE 4 8 1009.1 - 0.0 - Cloudy 10 - - - -
04/01:30pm 30.3 SSW 5 8 1009.2 - 0.0 - Cloudy 10 - - - -
04/01:00pm 29.9 SW 4 7 1009.6 - 0.0 - Cloudy 10 - - - -
04/12:30pm 30.1 SSE 4 7 1009.8 - 0.0 - Cloudy 10 - - - -
04/12:00pm 30.2 S 3 7 1010.2 - 0.0 - Mostly clear 10 - - - -
04/11:30am 29.0 SE 4 7 1011.0 - 0.0 - Partly cloudy 10 - - - -
04/11:00am 31.0 SE 3 6 1011.1 - 0.0 - Partly cloudy 10 - - - -
04/10:30am 33.4 NE 4 12 1011.5 - 0.0 - Partly cloudy 10 - - - -
04/10:00am 32.7 NW 5 12 1011.9 - 0.0 - Partly cloudy 10 - - - -
04/09:30am 31.6 NW 5 9 1012.1 - 0.0 - Partly cloudy 10 - - - -
04/09:00am 32.5 WNW 5 10 1012.3 - - - Mostly clear 10 - - - -
04/08:30am 31.9 NNW 4 7 1012.2 - - - - 10 - - - -
04/08:00am 31.1 NNW 3 6 1012.0 - - - - 10 - - - -
04/07:30am 30.1 N 3 4 1011.9 - - - - 10 - - - -
04/07:00am 29.3 NNW 1 3 1011.7 - - - - 10 - - - -
04/06:30am 27.8 N 2 4 1011.4 - - - - 10 - - - -
04/06:00am 27.3 NNE 3 4 1011.0 - - - - 10 - - - -
04/05:30am 26.4 NNE 2 3 1010.7 - - - - 10 - - - -
04/05:00am 26.2 NNE 1 2 1010.3 - - - - 10 - - - -
04/04:30am 26.2 CALM 0 0 1010.0 - - - - 10 - - - -
04/04:00am 26.9 NNE 2 3 1010.0 - - - - 10 - - - -
04/03:30am 27.0 ENE 1 2 1009.9 - - - - 10 - - - -
04/03:00am 27.4 CALM 0 1 1009.8 - 0.0 - - 10 - - - -
04/02:30am 28.1 WNW 2 4 1009.7 - - - - 10 - - - -
04/02:00am 27.5 W 1 2 1009.8 - - - - 10 - - - -
04/01:30am 28.2 NW 1 3 1009.7 - - - - 10 - - - -
04/01:00am 28.2 WNW 2 4 1009.9 - - - - 10 - - - -
04/12:30am 28.4 W 2 5 1010.1 - - - - 10 - - - -
04/12:00am 28.6 WNW 2 4 1010.4 - - - - 10 - - - -
 
Date/Time
WST
Temp

°C
Wind Pressure Rain
since 9am
mm
Weather Cloud Vis
km
Sea
Height
m
Swell
Dir
 
Speed
knots
Gust
knots
hPa Trend Height
m
Period
s
Dir
03/11:30pm 28.6 W 3 5 1010.5 - - - - 10 - - - -
03/11:00pm 28.9 W 3 5 1010.7 - - - - 10 - - - -
03/10:30pm 29.1 W 3 6 1010.8 - - - - 10 - - - -
03/10:00pm 29.3 W 4 7 1010.8 - - - - 10 - - - -
03/09:30pm 29.3 W 4 6 1011.0 - - - - 10 - - - -
03/09:00pm 29.4 W 4 8 1011.1 - 0.0 - - 10 - - - -
03/08:30pm 29.5 W 4 8 1011.1 - - - - 10 - - - -
03/08:00pm 29.6 W 4 7 1010.9 - - - - 10 - - - -
03/07:30pm 29.8 W 4 8 1010.6 - - - - 10 - - - -
03/07:00pm 30.0 W 5 8 1010.1 - - - - 10 - - - -
03/06:30pm 30.1 WNW 5 9 1009.7 - - - - 10 - - - -
03/06:00pm 30.3 WNW 5 8 1009.3 - - - - 10 - - - -
03/05:30pm 30.6 WNW 4 7 1009.1 - - - - 10 - - - -
03/05:00pm 31.1 WNW 6 9 1008.9 - - - - 10 - - - -
03/04:30pm 32.0 NW 6 10 1008.7 - - - - 10 - - - -
03/04:00pm 32.6 NW 7 10 1008.5 - - - - 10 - - - -
03/03:30pm 32.9 NW 8 11 1008.2 - - - - 10 - - - -
03/03:00pm 33.5 NW 8 12 1008.2 - - - - 10 - - - -
03/02:30pm 34.4 NW 8 12 1008.2 - - - - 10 - - - -
03/02:00pm 34.0 NW 9 12 1008.5 - - - - 10 - - - -
03/01:30pm 33.7 WNW 8 12 1008.7 - - - - 10 - - - -
03/01:00pm 34.4 WNW 8 13 1009.0 - 0.0 - - 10 - - - -
03/12:30pm 34.7 WNW 8 13 1009.3 - 0.0 - - 10 - - - -
03/12:00pm 34.7 NW 6 14 1009.7 - 0.0 - - 10 - - - -
03/11:30am 35.3 E 5 8 1009.9 - 0.0 - - 10 - - - -
03/11:00am 34.2 ENE 6 11 1010.5 - 0.0 - - 10 - - - -
03/10:30am 34.8 E 5 8 1011.0 - 0.0 - - 10 - - - -
03/10:00am 33.8 ESE 4 8 1011.4 - 0.0 - - 10 - - - -
03/09:30am 33.0 SE 5 8 1011.7 - 0.0 - - 10 - - - -
03/09:00am 31.5 E 5 10 1011.9 - 0.0 - - 10 - - - -
03/08:30am 31.6 SE 4 6 1011.7 - 0.0 - - 10 - - - -
03/08:00am 29.9 SE 5 8 1011.6 - 0.0 - - 10 - - - -
03/07:30am 28.4 SE 3 5 1011.4 - 0.0 - - 10 - - - -
03/07:00am 27.6 ESE 1 3 1011.1 - 0.0 - - 10 - - - -
03/06:30am 25.6 ESE 1 2 1010.8 - 0.0 - Partly cloudy 10 - - - -
03/06:00am 25.4 ESE 2 4 1010.7 - 0.0 - - 10 - - - -
03/05:30am 25.7 SSW 1 3 1010.3 - 0.0 - Partly cloudy 10 - - - -
03/05:00am 25.7 SW 2 4 1010.2 - 0.0 - Partly cloudy 10 - - - -
03/04:30am 26.0 SW 3 4 1010.2 - 0.0 - - 10 - - - -
03/04:00am 26.0 SW 3 5 1010.0 - 0.0 - - 10 - - - -
03/03:30am 25.9 SW 3 4 1009.8 - 0.0 - - 10 - - - -
03/03:00am 26.0 WSW 2 3 1009.9 - 0.0 - - 10 - - - -
03/02:30am 26.1 WSW 2 4 1009.8 - 0.0 - - 10 - - - -
03/02:00am 26.1 WSW 2 4 1010.0 - 0.0 - - 10 - - - -
03/01:30am 26.1 SW 2 4 1010.2 - 0.0 - Partly cloudy 10 - - - -
03/01:00am 26.2 SW 2 4 1010.5 - 0.0 - - 10 - - - -
03/12:30am 26.7 SW 3 5 1010.6 - 0.0 - - 10 - - - -
03/12:00am 26.9 SW 3 5 1011.1 - 0.0 - - 10 - - - -
 
Date/Time
WST
Temp

°C
Wind Pressure Rain
since 9am
mm
Weather Cloud Vis
km
Sea
Height
m
Swell
Dir
 
Speed
knots
Gust
knots
hPa Trend Height
m
Period
s
Dir
02/11:30pm 27.1 SW 3 5 1011.3 - 0.0 - - 10 - - - -
02/11:00pm 27.3 WSW 3 5 1011.4 - 0.0 - - 10 - - - -
02/10:30pm 27.6 WSW 3 5 1011.5 - 0.0 - - 10 - - - -
02/10:00pm 27.8 SW 3 5 1011.5 - 0.0 - - 10 - - - -
02/09:30pm 28.3 SW 3 5 1011.4 - 0.0 - - 10 - - - -
02/09:00pm 28.5 WSW 3 5 1011.6 - 0.0 - - 10 - - - -
02/08:30pm 28.7 WSW 3 6 1011.7 - 0.0 - - 10 - - - -
02/08:00pm 28.9 WSW 3 4 1011.9 - 0.0 - - 10 - - - -
02/07:30pm 29.3 WSW 4 6 1011.6 - 0.0 - - 10 - - - -
02/07:00pm 29.4 WSW 3 6 1011.1 - 0.0 - - 10 - - - -
02/06:30pm 29.9 WSW 4 7 1010.8 - 0.0 - - 10 - - - -
02/06:00pm 30.5 WSW 4 9 1010.4 - 0.0 - - 10 - - - -
02/05:30pm 31.3 WSW 4 9 1009.9 - 0.0 - - 10 - - - -
02/05:00pm 32.1 WSW 5 9 1009.6 - 0.0 - - 10 - - - -
02/04:30pm 32.7 W 7 12 1009.5 - 0.0 - - 10 - - - -
02/04:00pm 33.3 W 7 12 1009.3 - 0.0 - - 10 - - - -
02/03:30pm 33.8 W 7 13 1009.1 - 0.0 - - 10 - - - -
02/03:00pm 34.5 W 8 14 1009.1 - 0.0 - - 10 - - - -
02/02:30pm 35.2 W 8 14 1009.0 - 0.0 - Partly cloudy 10 - - - -
02/02:00pm 35.1 WNW 8 13 1009.2 - 0.0 - - 10 - - - -
02/01:30pm 34.5 WNW 8 12 1009.4 - 0.0 - - 10 - - - -
02/01:00pm 34.8 W 7 13 1009.7 - 0.0 - - 10 - - - -
02/12:30pm 35.0 W 7 12 1010.2 - 0.0 - - 10 - - - -
02/12:00pm 35.0 WNW 7 12 1010.7 - 0.0 - - 10 - - - -
02/11:30am 36.1 WNW 6 11 1010.9 - 0.0 - - 10 - - - -
02/11:00am 35.1 WNW 7 12 1011.2 - 0.0 - - 10 - - - -
02/10:30am 35.6 W 5 9 1011.6 - 0.0 - - 10 - - - -
02/10:00am 35.0 SSW 5 11 1012.0 - 0.0 - - 10 - - - -
02/09:30am 34.1 SSW 6 11 1012.3 - 0.0 - - 10 - - - -
02/09:00am 33.0 S 4 8 1012.3 - 0.0 - - 10 - - - -
02/08:30am 31.7 S 3 6 1012.5 - 0.0 - - 10 - - - -
02/08:00am 29.9 SSE 3 5 1012.5 - 0.0 - Partly cloudy 10 - - - -
02/07:30am 27.5 SSW 2 4 1012.3 - 0.0 - Partly cloudy 10 - - - -
02/07:00am 26.7 CALM 0 1 1011.9 - 0.0 - Partly cloudy 10 - - - -
02/06:30am 24.9 CALM 0 0 1011.5 - 0.0 - Partly cloudy 10 - - - -
02/06:00am 24.2 SSW 1 3 1011.0 - 0.0 - Mostly clear 10 - - - -
02/05:30am 25.3 CALM 0 2 1010.9 - 0.0 - Partly cloudy 10 - - - -
02/05:00am 25.1 SSW 3 5 1010.4 - 0.0 - Partly cloudy 10 - - - -
02/04:30am 25.1 SW 2 4 1010.2 - 0.0 - - 10 - - - -
02/04:00am 25.3 SW 3 5 1010.0 - 0.0 - - 10 - - - -
02/03:30am 25.5 SW 3 5 1010.0 - 0.0 - - 10 - - - -
02/03:00am 25.4 SW 3 5 1010.0 - 0.0 - - 10 - - - -
02/02:30am 25.5 SW 3 5 1009.9 - 0.0 - - 10 - - - -
02/02:00am 25.8 SW 3 5 1010.1 - 0.0 - - 10 - - - -
02/01:30am 26.1 SW 4 6 1010.1 - 0.0 - - 10 - - - -
02/01:00am 26.0 SW 3 5 1010.1 - 0.0 - - 10 - - - -
02/12:30am 26.2 SSW 3 6 1010.4 - 0.0 - - 10 - - - -
02/12:00am 26.3 SW 3 5 1010.5 - 0.0 - - 10 - - - -

Other Formats:

Comma delimited format used in spreadsheet applications
http://www.bom.gov.au/fwo/IDW60701/IDW60701.99206.axf

JavaScript Object Notation format (JSON) in row-major order
http://www.bom.gov.au/fwo/IDW60701/IDW60701.99206.json